Time;durP1;ratioP1;P1;durP2;ratioP2;P2;SDS_P1;SDS_P2;PMS_P1;PMS_P2;Temp;Humidity;BMP_temperature;BMP_pressure;BME280_temperature;BME280_humidity;BME280_pressure;Samples;Min_cycle;Max_cycle;Signal;HPM_P1;HPM_P2
2022/05/06 00:00:56;;;;;;;2.50;2.30;;;;;;;12.28;61.92;101141.41;5031647;28;20730;-74
2022/05/06 00:03:23;;;;;;;3.07;2.13;;;;;;;12.32;61.59;101145.72;5031858;28;20677;-75
2022/05/06 00:05:49;;;;;;;2.57;2.20;;;;;;;12.31;61.42;101151.00;5031925;28;20672;-75
2022/05/06 00:08:16;;;;;;;2.20;1.83;;;;;;;12.28;61.33;101161.50;5031961;28;20214;-76
2022/05/06 00:10:44;;;;;;;2.83;1.90;;;;;;;12.27;61.08;101165.03;5031985;28;20261;-75
2022/05/06 00:13:10;;;;;;;2.80;2.60;;;;;;;12.19;59.69;101196.53;5031995;28;20290;-75
2022/05/06 00:15:37;;;;;;;2.33;2.17;;;;;;;12.09;61.26;101193.19;5031747;28;20235;-75
2022/05/06 00:18:04;;;;;;;3.13;2.33;;;;;;;11.96;61.63;101172.41;5031508;28;20266;-76
2022/05/06 00:20:31;;;;;;;2.90;2.60;;;;;;;11.97;62.09;101161.94;5031110;28;20692;-76
2022/05/06 00:22:58;;;;;;;2.03;1.90;;;;;;;11.98;63.21;101136.63;5031652;28;20661;-76
2022/05/06 00:25:24;;;;;;;3.43;2.30;;;;;;;11.96;62.70;101131.41;5031986;28;20202;-76
2022/05/06 00:27:52;;;;;;;2.87;2.57;;;;;;;11.61;61.70;101153.59;5031725;28;20236;-76
2022/05/06 00:30:19;;;;;;;2.83;2.20;;;;;;;11.12;63.80;101143.72;5031592;28;20240;-76
2022/05/06 00:32:45;;;;;;;3.93;2.60;;;;;;;10.75;65.25;101086.56;5031821;28;20226;-76
2022/05/06 00:35:12;;;;;;;2.70;2.50;;;;;;;10.41;66.18;101054.69;5031370;28;20727;-76
2022/05/06 00:37:38;;;;;;;3.77;2.70;;;;;;;10.47;67.63;100997.22;5031593;28;20615;-76
2022/05/06 00:40:06;;;;;;;5.77;2.50;;;;;;;10.65;67.28;100983.13;5031397;28;20241;-76
2022/05/06 00:42:33;;;;;;;2.70;2.30;;;;;;;10.83;66.35;101000.31;5031900;28;20588;-75
2022/05/06 00:45:01;;;;;;;3.20;3.00;;;;;;;11.00;65.82;101023.63;5032067;28;20292;-76
2022/05/06 00:47:29;;;;;;;4.57;2.70;;;;;;;10.95;65.87;101034.13;5033317;28;20206;-76
2022/05/06 00:49:55;;;;;;;3.00;2.80;;;;;;;10.94;66.79;101024.56;5035403;28;20212;-76
2022/05/06 00:52:22;;;;;;;3.93;3.00;;;;;;;10.84;66.83;101018.59;5035366;28;20222;-75
2022/05/06 00:54:52;;;;;;;2.50;2.27;;;;;;;10.85;66.88;101011.63;5035495;28;20611;-76
2022/05/06 00:57:18;;;;;;;3.97;2.40;;;;;;;10.89;66.61;101023.75;5035743;28;20215;-75
2022/05/06 01:02:30;;;;;;;3.47;2.53;;;;;;;10.41;67.42;101016.41;5035391;28;20299;-74
2022/05/06 01:04:57;;;;;;;3.17;2.83;;;;;;;10.22;68.40;100999.13;5035529;28;20202;-75
2022/05/06 01:07:23;;;;;;;3.10;2.80;;;;;;;10.06;69.57;100972.31;5035422;28;20217;-75
2022/05/06 01:09:50;;;;;;;3.27;3.07;;;;;;;10.05;70.53;100927.13;5035353;28;20210;-74
2022/05/06 01:12:17;;;;;;;2.67;2.47;;;;;;;10.07;70.82;100898.41;5035328;28;20317;-75
2022/05/06 01:14:43;;;;;;;2.77;2.57;;;;;;;10.04;70.86;100888.84;5035097;28;20668;-72
2022/05/06 01:17:10;;;;;;;4.00;2.73;;;;;;;10.10;71.18;100887.94;5034318;28;20206;-73
2022/05/06 01:19:37;;;;;;;3.57;3.27;;;;;;;10.06;70.99;100886.25;5034902;28;20617;-73
2022/05/06 01:22:06;;;;;;;3.03;2.70;;;;;;;10.04;69.91;100914.94;5034839;28;20288;-74
2022/05/06 01:24:32;;;;;;;3.20;2.90;;;;;;;9.88;70.15;100929.00;5035112;28;20213;-73
2022/05/06 01:27:03;;;;;;;3.40;3.10;;;;;;;9.62;70.99;100919.63;5035221;28;20217;-73
2022/05/06 01:29:31;;;;;;;3.47;3.17;;;;;;;9.53;71.93;100886.69;5034532;28;20261;-73
2022/05/06 01:31:58;;;;;;;2.87;2.67;;;;;;;9.63;72.34;100868.38;5039204;28;20325;-73
2022/05/06 01:34:28;;;;;;;3.00;2.70;;;;;;;9.70;72.89;100844.84;5035033;28;20206;-73
2022/05/06 01:36:56;;;;;;;3.43;3.13;;;;;;;9.73;71.84;100873.50;5034900;28;20229;-73
2022/05/06 01:39:30;;;;;;;3.63;2.97;;;;;;;9.67;72.88;100857.91;5034512;28;20749;-75
2022/05/06 01:41:59;;;;;;;4.10;3.27;;;;;;;9.63;73.76;100848.41;5034904;28;20251;-75
2022/05/06 01:44:29;;;;;;;3.43;3.13;;;;;;;9.58;73.57;100850.16;5035050;28;20244;-76
2022/05/06 01:46:58;;;;;;;4.77;2.77;;;;;;;9.57;73.33;100850.16;5034960;28;20210;-76
2022/05/06 01:49:27;;;;;;;3.47;3.10;;;;;;;9.42;73.51;100859.00;5033742;28;20202;-75
2022/05/06 01:51:57;;;;;;;3.43;3.13;;;;;;;9.44;73.57;100850.28;5034277;28;20214;-76
2022/05/06 01:54:25;;;;;;;4.57;3.60;;;;;;;9.57;73.83;100837.13;5034843;28;20206;-76
2022/05/06 01:56:51;;;;;;;2.90;2.60;;;;;;;9.72;73.84;100834.41;5034568;28;20230;-75
2022/05/06 01:59:18;;;;;;;2.93;2.73;;;;;;;9.86;73.59;100842.09;5034030;28;20244;-74
2022/05/06 02:01:45;;;;;;;2.90;2.70;;;;;;;9.97;73.53;100855.03;5034293;28;20288;-76
2022/05/06 02:06:55;;;;;;;3.27;2.57;;;;;;;10.10;72.35;100887.94;5034376;28;20208;-74
2022/05/06 02:09:22;;;;;;;2.40;2.23;;;;;;;10.11;72.33;100903.59;5033764;28;20752;-75
2022/05/06 02:11:50;;;;;;;3.07;2.87;;;;;;;10.07;72.01;100914.94;5034471;28;20644;-75
2022/05/06 02:14:16;;;;;;;4.40;2.70;;;;;;;10.01;71.82;100912.38;5033954;28;20264;-74
2022/05/06 02:16:43;;;;;;;2.87;2.60;;;;;;;9.98;72.19;100914.16;5034438;28;20222;-74
2022/05/06 02:19:09;;;;;;;2.40;2.30;;;;;;;9.94;72.02;100914.16;5033057;28;20630;-73
2022/05/06 02:21:35;;;;;;;2.47;2.33;;;;;;;9.80;72.84;100907.34;5034706;28;20260;-73
2022/05/06 02:24:02;;;;;;;2.60;2.40;;;;;;;9.97;71.87;100904.56;5034356;28;20808;-74
2022/05/06 02:26:28;;;;;;;3.17;2.87;;;;;;;10.01;72.05;100912.38;5033981;28;20210;-74
2022/05/06 02:28:56;;;;;;;3.17;2.97;;;;;;;10.07;71.71;100921.91;5034141;28;20213;-72
2022/05/06 02:34:11;;;;;;;2.53;2.33;;;;;;;10.09;71.91;100920.13;5033828;28;20186;-74
2022/05/06 02:36:37;;;;;;;3.13;2.87;;;;;;;10.03;71.51;100930.59;5033902;28;20236;-74
2022/05/06 02:39:03;;;;;;;2.43;2.23;;;;;;;10.02;71.96;100926.28;5033138;28;20671;-74
2022/05/06 02:41:30;;;;;;;3.67;2.67;;;;;;;10.06;71.72;100927.97;5033325;28;20722;-74
2022/05/06 02:43:58;;;;;;;2.90;2.70;;;;;;;10.09;71.28;100927.97;5033526;28;20626;-75
2022/05/06 02:46:25;;;;;;;5.10;3.47;;;;;;;10.06;71.70;100930.59;5033174;28;20550;-74
2022/05/06 02:48:51;;;;;;;4.10;3.50;;;;;;;10.04;71.69;100941.03;5033544;28;20202;-74
2022/05/06 02:51:18;;;;;;;2.77;2.67;;;;;;;10.09;71.08;100943.63;5032446;28;20317;-74
2022/05/06 02:53:44;;;;;;;2.93;2.70;;;;;;;10.17;70.78;100956.56;5033176;28;20613;-74
2022/05/06 02:56:10;;;;;;;3.40;3.10;;;;;;;10.21;70.41;100960.88;5033038;28;20231;-74
2022/05/06 02:58:37;;;;;;;3.93;3.57;;;;;;;10.22;70.33;100975.66;5033118;28;20214;-72
2022/05/06 03:01:05;;;;;;;3.40;3.10;;;;;;;10.21;70.57;100980.03;5032635;28;20674;-75
2022/05/06 03:03:33;;;;;;;3.87;3.17;;;;;;;10.08;70.84;100970.56;5033278;28;20665;-74
2022/05/06 03:06:00;;;;;;;3.00;2.80;;;;;;;10.09;70.38;100956.66;5032907;28;20198;-74
2022/05/06 03:08:27;;;;;;;4.00;3.37;;;;;;;10.07;70.82;100955.81;5033073;28;20216;-74
2022/05/06 03:10:53;;;;;;;3.83;3.40;;;;;;;10.07;71.77;100942.75;5031661;28;20260;-73
2022/05/06 03:13:20;;;;;;;4.37;3.50;;;;;;;9.93;71.26;100932.44;5033049;28;20206;-74
2022/05/06 03:15:46;;;;;;;3.27;2.83;;;;;;;9.97;71.32;100926.31;5032823;28;20330;-74
2022/05/06 03:18:14;;;;;;;3.93;3.63;;;;;;;10.00;71.49;100931.50;5032241;28;20232;-73
2022/05/06 03:20:43;;;;;;;3.43;3.10;;;;;;;9.92;72.29;100928.09;5032603;28;20210;-73
2022/05/06 03:23:09;;;;;;;6.37;2.83;;;;;;;9.84;72.62;100914.25;5032480;28;20241;-73
2022/05/06 03:25:36;;;;;;;4.03;3.00;;;;;;;9.80;72.63;100912.56;5032729;28;20202;-73
2022/05/06 03:28:08;;;;;;;2.80;2.60;;;;;;;9.78;72.35;100919.53;5032708;28;20206;-73
2022/05/06 03:30:39;;;;;;;3.00;2.73;;;;;;;9.72;72.69;100921.28;5032658;28;20190;-74
2022/05/06 03:33:08;;;;;;;2.93;2.73;;;;;;;9.68;73.23;100914.38;5032355;28;20784;-73
2022/05/06 03:35:36;;;;;;;3.30;3.00;;;;;;;9.70;72.88;100914.38;5032506;28;20316;-74
2022/05/06 03:38:04;;;;;;;3.40;3.10;;;;;;;9.67;72.92;100916.97;5032522;28;20206;-74
2022/05/06 03:40:32;;;;;;;3.27;2.80;;;;;;;9.62;73.21;100914.41;5032690;28;20210;-74
2022/05/06 03:42:58;;;;;;;3.50;3.13;;;;;;;9.51;73.55;100913.63;5032417;28;20257;-74
2022/05/06 03:45:25;;;;;;;3.57;3.10;;;;;;;9.46;73.84;100897.19;5032292;28;20266;-74
2022/05/06 03:47:52;;;;;;;2.60;2.40;;;;;;;9.44;73.95;100885.91;5031847;28;20585;-74
2022/05/06 03:53:06;;;;;;;4.27;2.97;;;;;;;9.37;73.20;100902.44;5027538;28;20303;-74
2022/05/06 03:55:32;;;;;;;4.43;3.67;;;;;;;9.22;73.24;100909.47;5032233;28;20202;-74
2022/05/06 03:57:59;;;;;;;3.87;3.57;;;;;;;9.16;73.88;100896.50;5032410;28;20209;-74
2022/05/06 04:00:26;;;;;;;3.33;3.10;;;;;;;9.15;75.05;100876.50;5031729;28;20202;-74
2022/05/06 04:02:53;;;;;;;3.77;3.10;;;;;;;9.08;75.65;100860.06;5032141;28;20229;-74
2022/05/06 04:05:19;;;;;;;4.30;3.63;;;;;;;9.03;75.48;100853.16;5032165;28;20210;-74
2022/05/06 04:07:46;;;;;;;3.57;3.20;;;;;;;9.13;75.44;100853.09;5031723;28;20622;-74
2022/05/06 04:10:13;;;;;;;4.83;2.93;;;;;;;9.26;75.92;100853.88;5031878;28;20213;-74
2022/05/06 04:12:40;;;;;;;3.40;3.10;;;;;;;9.36;75.31;100872.91;5031886;28;20237;-74
2022/05/06 04:15:08;;;;;;;2.90;2.60;;;;;;;9.38;74.93;100873.78;5031890;28;20221;-74
2022/05/06 04:17:34;;;;;;;3.70;3.00;;;;;;;9.41;74.91;100880.69;5031718;28;20710;-74
2022/05/06 04:25:30;;;;;;;3.23;2.93;;;;;;;9.43;75.11;100894.56;5031808;28;20650;-75
2022/05/06 04:28:03;;;;;;;10.10;3.10;;;;;;;9.50;74.97;100904.09;5031737;28;20670;-74
2022/05/06 04:30:30;;;;;;;3.50;3.20;;;;;;;9.48;74.69;100906.69;5031378;28;20260;-74
2022/05/06 04:32:56;;;;;;;3.20;2.90;;;;;;;9.49;74.63;100908.44;5031435;28;20232;-74
2022/05/06 04:35:23;;;;;;;3.57;3.27;;;;;;;9.46;75.33;100902.38;5028578;28;20206;-74
2022/05/06 04:37:49;;;;;;;3.77;3.10;;;;;;;9.50;75.48;100897.13;5031005;28;20221;-75
2022/05/06 04:40:16;;;;;;;3.93;3.20;;;;;;;9.50;75.67;100894.53;5030839;28;20205;-74
2022/05/06 04:42:45;;;;;;;3.10;2.80;;;;;;;9.54;75.12;100893.63;5028719;28;20222;-74
2022/05/06 04:45:12;;;;;;;2.90;2.70;;;;;;;9.56;75.51;100903.19;5031295;28;20205;-72
2022/05/06 04:47:38;;;;;;;3.50;3.20;;;;;;;9.63;75.68;100910.06;5031135;28;20194;-74
2022/05/06 04:50:07;;;;;;;3.20;2.90;;;;;;;9.64;75.38;100899.63;5030089;28;20656;-74
2022/05/06 04:52:33;;;;;;;3.63;3.10;;;;;;;9.70;75.30;100912.63;5030929;28;20324;-74
2022/05/06 04:55:00;;;;;;;5.23;3.43;;;;;;;9.72;74.96;100910.00;5031153;28;20253;-75
2022/05/06 04:57:26;;;;;;;3.73;3.20;;;;;;;9.79;75.07;100914.31;5029350;28;20621;-74
2022/05/06 04:59:55;;;;;;;3.17;2.93;;;;;;;9.85;75.20;100916.84;5030577;28;20200;-74
2022/05/06 05:02:21;;;;;;;3.13;2.93;;;;;;;9.87;75.55;100920.31;5028188;28;20218;-74
2022/05/06 05:04:52;;;;;;;3.10;2.53;;;;;;;9.91;75.89;100914.19;5031065;28;20201;-74
2022/05/06 05:07:18;;;;;;;3.00;2.80;;;;;;;10.00;75.58;100917.59;5031065;28;20186;-74
2022/05/06 05:09:45;;;;;;;4.60;2.93;;;;;;;10.01;75.99;100911.50;5030886;28;20252;-74
2022/05/06 05:12:11;;;;;;;3.30;3.00;;;;;;;10.02;75.84;100919.31;5030980;28;20594;-74
2022/05/06 05:14:38;;;;;;;2.57;2.40;;;;;;;10.07;75.59;100922.75;5030908;28;20202;-74
2022/05/06 05:17:06;;;;;;;3.17;2.87;;;;;;;10.13;75.21;100932.28;5030864;28;20249;-74
2022/05/06 05:19:32;;;;;;;3.20;3.03;;;;;;;10.16;75.23;100936.59;5030248;28;20296;-74
2022/05/06 05:21:59;;;;;;;3.40;3.10;;;;;;;10.18;75.67;100930.47;5030422;28;20233;-74
2022/05/06 05:24:27;;;;;;;3.87;3.57;;;;;;;10.22;75.42;100934.78;5030877;28;20557;-74
2022/05/06 05:26:54;;;;;;;4.40;2.97;;;;;;;10.27;75.98;100929.53;5031108;28;20225;-74
2022/05/06 05:29:21;;;;;;;3.33;3.03;;;;;;;10.36;75.49;100926.84;5030076;28;20590;-74
2022/05/06 05:31:47;;;;;;;4.00;3.60;;;;;;;10.43;75.55;100931.13;5030815;28;20734;-74
2022/05/06 05:34:15;;;;;;;6.00;4.47;;;;;;;10.53;74.57;100955.38;5033096;28;20216;-73
2022/05/06 05:36:41;;;;;;;4.73;3.93;;;;;;;10.57;74.85;100966.66;5034441;28;20684;-75
2022/05/06 05:39:08;;;;;;;7.33;3.90;;;;;;;10.63;74.63;100971.81;5033967;28;20223;-75
2022/05/06 05:41:35;;;;;;;3.47;3.17;;;;;;;10.70;74.63;100976.06;5034161;28;20271;-74
2022/05/06 05:49:32;;;;;;;3.77;3.47;;;;;;;10.78;74.91;100968.16;5033425;28;20205;-74
2022/05/06 05:51:59;;;;;;;4.90;4.43;;;;;;;10.79;74.67;100968.16;5033582;28;20229;-73
2022/05/06 05:54:26;;;;;;;4.03;3.73;;;;;;;10.88;74.78;100970.66;5034350;28;20198;-73
2022/05/06 05:56:52;;;;;;;4.33;3.80;;;;;;;10.80;71.23;101043.03;5033297;28;20311;-74
2022/05/06 05:59:19;;;;;;;4.00;3.63;;;;;;;10.86;71.39;101076.91;5033515;28;20194;-74
2022/05/06 06:01:45;;;;;;;4.10;3.80;;;;;;;10.81;69.77;101117.84;5033606;28;20214;-73
2022/05/06 06:04:11;;;;;;;5.77;4.10;;;;;;;10.82;70.78;101105.66;5033856;28;20204;-73
2022/05/06 06:06:39;;;;;;;3.97;3.70;;;;;;;10.87;70.38;101104.75;5033838;28;20248;-73
2022/05/06 06:09:06;;;;;;;4.77;4.37;;;;;;;10.90;71.40;101093.38;5033345;28;20219;-76
2022/05/06 06:11:32;;;;;;;4.23;3.83;;;;;;;10.91;72.24;101064.66;5033522;28;20260;-72
2022/05/06 06:13:58;;;;;;;4.33;3.93;;;;;;;10.96;73.84;101020.22;5033532;28;20227;-73
2022/05/06 06:16:26;;;;;;;5.90;4.27;;;;;;;10.96;75.55;100973.19;5033593;28;20222;-73
2022/05/06 06:18:52;;;;;;;4.53;4.13;;;;;;;11.01;75.75;100952.22;5032980;28;20206;-72
2022/05/06 06:21:19;;;;;;;4.53;4.20;;;;;;;10.98;76.21;100941.81;5031556;28;20230;-73
2022/05/06 06:23:47;;;;;;;5.53;4.90;;;;;;;10.99;76.31;100939.19;5033522;28;20210;-72
2022/05/06 06:26:13;;;;;;;5.37;4.80;;;;;;;10.99;75.77;100960.09;5033816;28;20209;-72
2022/05/06 06:28:40;;;;;;;5.07;4.60;;;;;;;10.99;75.45;100972.28;5032817;28;20256;-71
2022/05/06 06:31:06;;;;;;;6.93;4.63;;;;;;;11.06;74.36;100994.81;5033059;28;20675;-73
2022/05/06 06:33:37;;;;;;;5.50;5.10;;;;;;;11.13;73.41;101030.47;5033307;28;20595;-73
2022/05/06 06:36:04;;;;;;;4.73;4.33;;;;;;;11.26;73.62;101039.03;5031078;28;20206;-73
2022/05/06 06:38:31;;;;;;;5.20;4.70;;;;;;;11.35;73.78;101030.19;5033422;28;20634;-73
2022/05/06 06:40:59;;;;;;;4.97;4.37;;;;;;;11.36;72.81;101069.41;5032460;28;20214;-73
2022/05/06 06:43:26;;;;;;;4.70;4.30;;;;;;;11.47;72.99;101057.03;5030926;28;20255;-73
2022/05/06 06:45:52;;;;;;;5.40;5.00;;;;;;;11.53;73.93;101037.78;5031679;28;20202;-72
2022/05/06 06:48:19;;;;;;;5.50;5.00;;;;;;;11.59;74.47;101019.41;5032872;28;20202;-72
2022/05/06 06:50:46;;;;;;;5.20;4.80;;;;;;;11.70;74.61;101008.81;5033037;28;20256;-73
2022/05/06 06:53:12;;;;;;;5.40;4.90;;;;;;;11.77;74.39;101020.03;5032867;28;20226;-73
2022/05/06 06:55:38;;;;;;;6.30;4.67;;;;;;;11.86;72.56;101057.38;5033159;28;20206;-73
2022/05/06 06:58:08;;;;;;;5.40;5.00;;;;;;;11.96;70.52;101130.56;5033207;28;20233;-72
2022/05/06 07:00:34;;;;;;;5.60;4.97;;;;;;;12.05;70.35;101165.31;5030434;28;20315;-73
2022/05/06 07:03:01;;;;;;;5.73;5.13;;;;;;;12.13;71.38;101136.44;5032765;28;20226;-73
2022/05/06 07:05:27;;;;;;;5.50;5.00;;;;;;;12.26;71.12;101121.41;5030591;28;20202;-74
2022/05/06 07:13:26;;;;;;;6.27;4.87;;;;;;;12.49;67.86;101258.09;5031788;28;20209;-73
2022/05/06 07:15:52;;;;;;;5.33;4.83;;;;;;;12.60;68.50;101228.25;5032636;28;20244;-73
2022/05/06 07:18:18;;;;;;;5.07;4.57;;;;;;;12.73;68.24;101218.47;5032284;28;20687;-73
2022/05/06 07:20:45;;;;;;;5.83;4.37;;;;;;;12.80;68.19;101231.44;5032053;28;20717;-73
2022/05/06 07:23:11;;;;;;;5.10;4.70;;;;;;;12.89;68.05;101223.44;5032148;28;20240;-73
2022/05/06 07:25:38;;;;;;;5.50;5.00;;;;;;;13.00;68.18;101220.66;5032580;28;20202;-73
2022/05/06 07:28:06;;;;;;;4.13;3.80;;;;;;;13.07;63.93;101316.63;5032275;28;20587;-73
2022/05/06 07:30:33;;;;;;;5.10;4.60;;;;;;;13.22;65.67;101312.03;5032390;28;20201;-73
2022/05/06 07:33:00;;;;;;;4.93;4.23;;;;;;;13.30;67.10;101291.84;5032022;28;20214;-73
2022/05/06 07:35:26;;;;;;;4.90;4.43;;;;;;;13.44;66.99;101257.53;5032835;28;20252;-73
2022/05/06 07:37:53;;;;;;;4.53;4.10;;;;;;;13.51;67.31;101241.63;5032354;28;20228;-73
2022/05/06 07:40:20;;;;;;;5.73;4.67;;;;;;;13.57;67.86;101238.03;5032921;28;20213;-77
2022/05/06 07:42:50;;;;;;;5.60;5.10;;;;;;;13.67;66.43;101270.22;5033247;28;20219;-74
2022/05/06 07:45:17;;;;;;;5.50;5.00;;;;;;;13.81;66.05;101276.06;5032357;28;20200;-74
2022/05/06 07:47:45;;;;;;;5.20;4.70;;;;;;;13.87;66.26;101293.44;5032382;28;20199;-73
2022/05/06 07:50:11;;;;;;;6.10;4.70;;;;;;;13.90;66.46;101285.53;5032161;28;20272;-73
2022/05/06 07:52:38;;;;;;;4.67;4.27;;;;;;;13.95;66.47;101275.78;5032281;28;20317;-73
2022/05/06 07:55:05;;;;;;;5.20;4.80;;;;;;;14.02;65.78;101284.44;5032287;28;20673;-73
2022/05/06 07:57:32;;;;;;;5.70;5.10;;;;;;;14.09;65.46;101307.91;5031777;28;20232;-74
2022/05/06 07:59:58;;;;;;;5.20;4.70;;;;;;;14.15;65.00;101314.78;5031788;28;20212;-73
2022/05/06 08:05:11;;;;;;;4.70;4.30;;;;;;;14.16;65.36;101320.91;5032246;28;20264;-73
2022/05/06 08:07:37;;;;;;;4.80;4.13;;;;;;;14.21;64.53;101326.94;5032282;28;20208;-73
2022/05/06 08:10:06;;;;;;;5.40;4.10;;;;;;;14.33;64.12;101331.06;5031866;28;20205;-73
2022/05/06 08:12:33;;;;;;;3.93;3.43;;;;;;;14.39;63.93;101358.09;5032034;28;20222;-73
2022/05/06 08:14:59;;;;;;;3.87;3.47;;;;;;;14.45;62.44;101344.84;5031559;28;20238;-73
2022/05/06 08:17:26;;;;;;;3.17;2.87;;;;;;;14.63;59.50;101409.31;5031592;28;20573;-74
2022/05/06 08:19:52;;;;;;;10.03;3.50;;;;;;;14.75;58.92;101513.34;5031499;28;20881;-74
2022/05/06 08:22:20;;;;;;;3.13;2.93;;;;;;;14.76;56.73;101561.50;5031750;28;20240;-73
2022/05/06 08:24:47;;;;;;;3.63;2.67;;;;;;;14.88;57.20;101583.19;5032036;28;20239;-74
2022/05/06 08:27:14;;;;;;;3.50;2.90;;;;;;;15.02;55.09;101593.41;5031685;28;20211;-74
2022/05/06 08:29:41;;;;;;;3.43;3.20;;;;;;;15.01;53.85;101654.81;5031568;28;20211;-74
2022/05/06 08:32:08;;;;;;;3.97;3.30;;;;;;;15.04;54.26;101653.88;5031566;28;20316;-73
2022/05/06 08:34:35;;;;;;;5.60;2.90;;;;;;;15.03;53.66;101676.69;5031933;28;20207;-74
2022/05/06 08:37:03;;;;;;;6.03;2.70;;;;;;;15.15;53.62;101675.59;5031712;28;20212;-73
2022/05/06 08:39:30;;;;;;;3.33;2.67;;;;;;;15.27;52.96;101674.50;5031359;28;20215;-75
2022/05/06 08:41:58;;;;;;;3.77;2.60;;;;;;;15.32;52.50;101693.72;5031854;28;20231;-73
2022/05/06 08:52:54;;;;;;;2.83;2.63;;;;;;;15.69;50.37;101778.09;5006623;28;20229;-74
2022/05/06 08:55:22;;;;;;;3.77;2.60;;;;;;;15.73;50.80;101784.19;5031724;28;20214;-74
2022/05/06 08:57:49;;;;;;;4.00;3.00;;;;;;;15.71;50.05;101819.31;5031133;28;20222;-74
2022/05/06 09:00:16;;;;;;;5.50;2.63;;;;;;;15.70;51.20;101797.41;5031060;28;20211;-74
2022/05/06 09:02:42;;;;;;;2.87;2.67;;;;;;;15.74;51.00;101778.06;5031711;28;20284;-74
2022/05/06 09:05:16;;;;;;;3.70;3.27;;;;;;;15.78;51.49;101779.72;5031349;28;20247;-74
2022/05/06 09:07:53;;;;;;;3.17;2.93;;;;;;;15.88;49.50;101804.13;5031012;28;20226;-75
2022/05/06 09:10:21;;;;;;;3.53;2.37;;;;;;;16.03;48.10;101842.44;5034916;28;20250;-74
2022/05/06 09:12:53;;;;;;;3.00;2.30;;;;;;;16.10;48.34;101856.41;5035259;28;20232;-74
2022/05/06 09:18:07;;;;;;;3.60;2.93;;;;;;;16.14;46.99;101931.84;5035456;28;20235;-76
2022/05/06 09:20:34;;;;;;;5.10;3.00;;;;;;;16.17;45.87;101937.03;5038689;28;20209;-80
2022/05/06 09:23:20;;;;;;;3.47;2.80;;;;;;;16.22;48.12;101933.41;5050993;28;20244;-78
2022/05/06 09:25:49;;;;;;;3.47;2.57;;;;;;;16.29;48.01;101915.72;5035928;28;20233;-74
2022/05/06 09:28:23;;;;;;;2.90;2.60;;;;;;;16.31;48.12;101895.47;5035461;28;20216;-73
2022/05/06 09:31:04;;;;;;;3.10;2.80;;;;;;;16.37;48.32;101883.94;5034822;28;20732;-73
2022/05/06 09:33:32;;;;;;;6.03;2.63;;;;;;;16.32;47.46;101896.38;5035253;28;20207;-73
2022/05/06 09:35:59;;;;;;;3.40;3.10;;;;;;;16.38;48.10;101878.66;5034737;28;20586;-74
2022/05/06 09:38:29;;;;;;;3.20;2.90;;;;;;;16.55;45.10;101922.25;5033870;28;20278;-73
2022/05/06 09:40:58;;;;;;;4.00;3.67;;;;;;;16.63;43.74;101999.41;5034529;28;20196;-74
2022/05/06 09:43:26;;;;;;;3.83;3.53;;;;;;;16.55;42.80;102057.59;5032019;28;20306;-73
2022/05/06 09:45:52;;;;;;;3.80;3.20;;;;;;;16.65;43.97;102048.59;5035152;28;20243;-73
2022/05/06 09:48:19;;;;;;;3.97;3.57;;;;;;;16.67;44.22;102004.63;5034766;28;20259;-74
2022/05/06 09:50:47;;;;;;;3.60;3.30;;;;;;;16.79;45.42;102014.06;5034712;28;20296;-73
2022/05/06 09:53:15;;;;;;;4.40;3.23;;;;;;;16.82;44.60;101970.97;5034583;28;20589;-74
2022/05/06 09:55:44;;;;;;;3.63;3.33;;;;;;;16.89;44.81;101983.13;5034707;28;20215;-74
2022/05/06 09:58:13;;;;;;;4.30;3.20;;;;;;;17.00;46.66;101957.38;5034479;28;20642;-73
2022/05/06 10:00:40;;;;;;;3.37;3.07;;;;;;;17.01;45.30;101979.38;5034003;28;20611;-73
2022/05/06 10:03:09;;;;;;;5.47;4.23;;;;;;;16.89;44.91;102006.88;5034117;28;20800;-72
2022/05/06 10:05:37;;;;;;;5.07;4.10;;;;;;;16.95;43.43;101987.41;5034145;28;20216;-73
2022/05/06 10:08:07;;;;;;;4.43;3.37;;;;;;;17.04;44.42;102014.44;5034238;28;20383;-73
2022/05/06 10:10:38;;;;;;;4.60;3.60;;;;;;;17.14;45.50;101967.63;5034334;28;20231;-73
2022/05/06 10:13:10;;;;;;;5.43;3.27;;;;;;;17.27;46.12;101945.34;5034270;28;20233;-74
2022/05/06 10:15:38;;;;;;;4.33;2.93;;;;;;;17.24;43.89;101999.97;5034664;28;20193;-73
2022/05/06 10:18:07;;;;;;;3.67;3.37;;;;;;;17.20;43.71;102051.09;5034351;28;20225;-73
2022/05/06 10:20:49;;;;;;;3.30;3.00;;;;;;;17.37;44.05;102005.88;5033540;28;20241;-72
2022/05/06 10:23:18;;;;;;;4.03;3.03;;;;;;;17.52;45.75;102008.19;5034086;28;20216;-73
2022/05/06 10:25:54;;;;;;;4.73;3.53;;;;;;;17.42;41.60;102049.75;5034140;28;20204;-73
2022/05/06 10:34:29;;;;;;;2.87;2.67;;;;;;;17.86;42.75;102039.13;5033999;28;20253;-73
2022/05/06 10:36:57;;;;;;;3.10;2.83;;;;;;;18.00;42.46;102026.44;5034246;28;20204;-73
2022/05/06 10:39:26;;;;;;;3.50;2.63;;;;;;;18.06;41.75;102036.00;5033224;28;20233;-73
2022/05/06 10:42:06;;;;;;;1.97;1.83;;;;;;;17.97;40.34;102054.69;5033550;28;20229;-74
2022/05/06 10:44:38;;;;;;;3.83;2.40;;;;;;;18.09;42.19;102096.69;5033903;28;20216;-72
2022/05/06 10:47:44;;;;;;;2.30;2.20;;;;;;;18.37;41.58;102082.78;5033884;28;20209;-72
2022/05/06 10:50:15;;;;;;;2.60;2.33;;;;;;;18.45;41.71;102070.25;5032481;28;20630;-73
2022/05/06 10:52:46;;;;;;;3.07;2.87;;;;;;;18.29;41.29;102090.91;5033087;28;20308;-73
2022/05/06 10:55:17;;;;;;;3.00;2.40;;;;;;;18.45;41.25;102043.78;5033247;28;20889;-73
2022/05/06 10:58:03;;;;;;;2.53;2.27;;;;;;;18.61;40.91;102049.53;5033558;28;20247;-72
2022/05/06 11:00:33;;;;;;;4.40;2.50;;;;;;;18.59;41.37;102080.47;5033096;28;20304;-73
2022/05/06 11:03:01;;;;;;;2.63;2.13;;;;;;;18.90;42.44;102059.38;5033505;28;20229;-72
2022/05/06 11:05:30;;;;;;;4.43;1.83;;;;;;;18.99;41.74;102071.50;5033651;28;20213;-72
2022/05/06 11:07:59;;;;;;;2.57;1.90;;;;;;;19.22;41.57;102082.28;5033399;28;20603;-72
2022/05/06 11:10:28;;;;;;;1.93;1.83;;;;;;;19.21;38.73;102083.22;5032387;28;20317;-73
2022/05/06 11:12:57;;;;;;;2.13;2.03;;;;;;;18.24;39.34;102170.34;5033304;28;20283;-73
2022/05/06 11:15:25;;;;;;;4.60;2.07;;;;;;;18.53;41.90;102121.19;5033420;28;20220;-76
2022/05/06 11:17:55;;;;;;;2.87;2.30;;;;;;;18.47;39.10;102116.03;5033274;28;20232;-73
2022/05/06 11:20:26;;;;;;;2.47;2.27;;;;;;;18.67;39.49;102118.16;5032438;28;20212;-73
2022/05/06 11:23:01;;;;;;;2.27;1.70;;;;;;;19.04;40.05;102114.56;5032811;28;20240;-73
2022/05/06 11:25:32;;;;;;;1.80;1.63;;;;;;;19.13;38.39;102121.41;5032723;28;20208;-73
2022/05/06 11:28:00;;;;;;;3.87;1.63;;;;;;;19.35;39.74;102129.63;5032703;28;20235;-73
2022/05/06 11:30:28;;;;;;;2.40;1.80;;;;;;;20.35;38.63;102130.09;5032018;28;20675;-73
2022/05/06 11:32:56;;;;;;;4.20;2.30;;;;;;;20.77;37.31;102203.91;5032149;28;20643;-74
2022/05/06 11:35:47;;;;;;;2.53;2.10;;;;;;;22.51;35.03;102248.09;5032964;28;20202;-73
2022/05/06 11:38:13;;;;;;;3.37;1.90;;;;;;;24.38;32.48;102305.75;5032401;28;20242;-74
2022/05/06 11:40:40;;;;;;;3.37;2.10;;;;;;;24.39;30.50;102440.06;5032372;28;20256;-73
2022/05/06 11:43:08;;;;;;;2.53;1.60;;;;;;;25.79;29.27;102459.25;5032266;28;20238;-73
2022/05/06 11:48:22;;;;;;;1.70;1.60;;;;;;;27.46;26.92;102500.34;5032520;28;20252;-75
2022/05/06 11:51:03;;;;;;;2.50;2.30;;;;;;;26.98;27.13;102590.56;5032440;28;20206;-74
2022/05/06 11:53:31;;;;;;;2.73;2.27;;;;;;;27.79;25.98;102563.72;5032180;28;20754;-73
2022/05/06 11:55:58;;;;;;;2.50;2.30;;;;;;;26.84;25.84;102569.88;5032309;28;20344;-73
2022/05/06 11:58:26;;;;;;;4.37;2.50;;;;;;;27.21;26.60;102582.13;5032430;28;20226;-73
2022/05/06 12:00:54;;;;;;;2.03;1.93;;;;;;;26.79;26.72;102578.16;5031392;28;20202;-72
2022/05/06 12:03:20;;;;;;;2.33;1.90;;;;;;;25.38;27.83;102555.81;5032553;28;20210;-73
2022/05/06 12:06:02;;;;;;;2.73;1.90;;;;;;;24.84;29.74;102479.00;5032393;28;20207;-72
2022/05/06 12:08:30;;;;;;;1.50;1.40;;;;;;;23.83;30.26;102432.78;5032459;28;20228;-73
2022/05/06 12:11:02;;;;;;;2.07;1.70;;;;;;;23.60;31.05;102358.13;5031804;28;20210;-73
2022/05/06 12:13:40;;;;;;;1.60;1.50;;;;;;;24.07;31.36;102322.31;5031987;28;20213;-72
2022/05/06 12:16:09;;;;;;;1.60;1.50;;;;;;;25.99;28.82;102361.94;5032104;28;20299;-73
2022/05/06 12:18:36;;;;;;;2.37;1.67;;;;;;;26.59;25.62;102463.16;5031619;28;20626;-73
2022/05/06 12:21:20;;;;;;;4.03;1.50;;;;;;;28.33;26.60;102497.81;4329358;28;10000699;-73